sensor_id;sensor_type;location;lat;lon;timestamp;temperature;humidity
33067;DHT22;19428;49.024;8.366;2023-07-29T00:01:43;17.70;99.90
33067;DHT22;19428;49.024;8.366;2023-07-29T00:04:09;17.70;99.90
33067;DHT22;19428;49.024;8.366;2023-07-29T00:06:35;17.80;99.90
33067;DHT22;19428;49.024;8.366;2023-07-29T00:09:02;17.70;99.90
33067;DHT22;19428;49.024;8.366;2023-07-29T00:11:28;17.70;99.90
33067;DHT22;19428;49.024;8.366;2023-07-29T00:13:53;17.70;99.90
33067;DHT22;19428;49.024;8.366;2023-07-29T00:16:19;17.70;99.90
33067;DHT22;19428;49.024;8.366;2023-07-29T00:18:48;17.70;99.90
33067;DHT22;19428;49.024;8.366;2023-07-29T00:21:14;17.60;99.90
33067;DHT22;19428;49.024;8.366;2023-07-29T00:23:40;17.60;99.90
33067;DHT22;19428;49.024;8.366;2023-07-29T00:26:05;17.60;99.90
33067;DHT22;19428;49.024;8.366;2023-07-29T00:28:31;17.60;99.90
33067;DHT22;19428;49.024;8.366;2023-07-29T00:30:57;17.60;99.90
33067;DHT22;19428;49.024;8.366;2023-07-29T00:33:22;17.60;99.90
33067;DHT22;19428;49.024;8.366;2023-07-29T00:35:48;17.60;99.90
33067;DHT22;19428;49.024;8.366;2023-07-29T00:38:13;17.70;99.90
33067;DHT22;19428;49.024;8.366;2023-07-29T00:40:39;17.70;99.90
33067;DHT22;19428;49.024;8.366;2023-07-29T00:43:05;17.70;99.90
33067;DHT22;19428;49.024;8.366;2023-07-29T00:45:32;17.60;99.90
33067;DHT22;19428;49.024;8.366;2023-07-29T00:47:59;17.70;99.90
33067;DHT22;19428;49.024;8.366;2023-07-29T00:50:25;17.70;99.90
33067;DHT22;19428;49.024;8.366;2023-07-29T00:52:53;17.70;99.90
33067;DHT22;19428;49.024;8.366;2023-07-29T00:55:19;17.80;99.90
33067;DHT22;19428;49.024;8.366;2023-07-29T00:57:45;17.80;99.90
33067;DHT22;19428;49.024;8.366;2023-07-29T01:00:14;17.70;99.90
33067;DHT22;19428;49.024;8.366;2023-07-29T01:02:41;17.70;99.90
33067;DHT22;19428;49.024;8.366;2023-07-29T01:05:07;17.70;99.90
33067;DHT22;19428;49.024;8.366;2023-07-29T01:10:07;17.70;99.90
33067;DHT22;19428;49.024;8.366;2023-07-29T01:12:49;17.70;99.90
33067;DHT22;19428;49.024;8.366;2023-07-29T01:15:31;17.60;99.90
33067;DHT22;19428;49.024;8.366;2023-07-29T01:18:08;17.40;99.90
33067;DHT22;19428;49.024;8.366;2023-07-29T01:20:38;17.30;99.90
33067;DHT22;19428;49.024;8.366;2023-07-29T01:23:05;17.20;99.90
33067;DHT22;19428;49.024;8.366;2023-07-29T01:25:30;17.30;99.90
33067;DHT22;19428;49.024;8.366;2023-07-29T01:27:56;17.30;99.90
33067;DHT22;19428;49.024;8.366;2023-07-29T01:30:30;17.40;99.90
33067;DHT22;19428;49.024;8.366;2023-07-29T01:33:20;17.20;99.90
33067;DHT22;19428;49.024;8.366;2023-07-29T01:35:52;17.20;99.90
33067;DHT22;19428;49.024;8.366;2023-07-29T01:38:22;17.20;99.90
33067;DHT22;19428;49.024;8.366;2023-07-29T01:40:50;17.00;99.90
33067;DHT22;19428;49.024;8.366;2023-07-29T01:43:16;17.10;99.90
33067;DHT22;19428;49.024;8.366;2023-07-29T01:45:44;17.10;99.90
33067;DHT22;19428;49.024;8.366;2023-07-29T01:48:09;17.10;99.90
33067;DHT22;19428;49.024;8.366;2023-07-29T01:50:35;17.10;99.90
33067;DHT22;19428;49.024;8.366;2023-07-29T01:53:01;17.10;99.90
33067;DHT22;19428;49.024;8.366;2023-07-29T01:55:27;17.20;99.90
33067;DHT22;19428;49.024;8.366;2023-07-29T01:57:52;17.20;99.90
33067;DHT22;19428;49.024;8.366;2023-07-29T02:00:18;17.20;99.90
33067;DHT22;19428;49.024;8.366;2023-07-29T02:02:44;17.20;99.90
33067;DHT22;19428;49.024;8.366;2023-07-29T02:05:10;17.20;99.90
33067;DHT22;19428;49.024;8.366;2023-07-29T02:07:35;17.30;99.90
33067;DHT22;19428;49.024;8.366;2023-07-29T02:10:01;17.40;99.90
33067;DHT22;19428;49.024;8.366;2023-07-29T02:12:26;17.50;99.90
33067;DHT22;19428;49.024;8.366;2023-07-29T02:14:52;17.40;99.90
33067;DHT22;19428;49.024;8.366;2023-07-29T02:17:17;17.30;99.90
33067;DHT22;19428;49.024;8.366;2023-07-29T02:19:43;17.40;99.90
33067;DHT22;19428;49.024;8.366;2023-07-29T02:22:12;17.50;99.90
33067;DHT22;19428;49.024;8.366;2023-07-29T02:24:38;17.50;99.90
33067;DHT22;19428;49.024;8.366;2023-07-29T02:27:04;17.50;99.90
33067;DHT22;19428;49.024;8.366;2023-07-29T02:29:29;17.50;99.90
33067;DHT22;19428;49.024;8.366;2023-07-29T02:31:56;17.40;99.90
33067;DHT22;19428;49.024;8.366;2023-07-29T02:34:21;17.40;99.90
33067;DHT22;19428;49.024;8.366;2023-07-29T02:36:47;17.50;99.90
33067;DHT22;19428;49.024;8.366;2023-07-29T02:39:12;17.50;99.90
33067;DHT22;19428;49.024;8.366;2023-07-29T02:41:38;17.60;99.90
33067;DHT22;19428;49.024;8.366;2023-07-29T02:44:05;17.50;99.90
33067;DHT22;19428;49.024;8.366;2023-07-29T02:46:30;17.60;99.90
33067;DHT22;19428;49.024;8.366;2023-07-29T02:48:56;17.50;99.90
33067;DHT22;19428;49.024;8.366;2023-07-29T02:51:21;17.60;99.90
33067;DHT22;19428;49.024;8.366;2023-07-29T02:53:47;17.50;99.90
33067;DHT22;19428;49.024;8.366;2023-07-29T02:56:12;17.60;99.90
33067;DHT22;19428;49.024;8.366;2023-07-29T02:58:38;17.60;99.90
33067;DHT22;19428;49.024;8.366;2023-07-29T03:01:05;17.50;99.90
33067;DHT22;19428;49.024;8.366;2023-07-29T03:03:32;17.60;99.90
33067;DHT22;19428;49.024;8.366;2023-07-29T03:06:06;17.60;99.90
33067;DHT22;19428;49.024;8.366;2023-07-29T03:08:31;17.60;99.90
33067;DHT22;19428;49.024;8.366;2023-07-29T03:10:58;17.60;99.90
33067;DHT22;19428;49.024;8.366;2023-07-29T03:13:24;17.60;99.90
33067;DHT22;19428;49.024;8.366;2023-07-29T03:15:49;17.50;99.90
33067;DHT22;19428;49.024;8.366;2023-07-29T03:18:15;17.50;99.90
33067;DHT22;19428;49.024;8.366;2023-07-29T03:20:41;17.40;99.90
33067;DHT22;19428;49.024;8.366;2023-07-29T03:23:07;17.50;99.90
33067;DHT22;19428;49.024;8.366;2023-07-29T03:25:32;17.50;99.90
33067;DHT22;19428;49.024;8.366;2023-07-29T03:27:58;17.40;99.90
33067;DHT22;19428;49.024;8.366;2023-07-29T03:30:24;17.50;99.90
33067;DHT22;19428;49.024;8.366;2023-07-29T03:32:50;17.40;99.90
33067;DHT22;19428;49.024;8.366;2023-07-29T03:35:16;17.50;99.90
33067;DHT22;19428;49.024;8.366;2023-07-29T03:37:41;17.50;99.90
33067;DHT22;19428;49.024;8.366;2023-07-29T03:40:08;17.50;99.90
33067;DHT22;19428;49.024;8.366;2023-07-29T03:42:36;17.70;99.90
33067;DHT22;19428;49.024;8.366;2023-07-29T03:45:02;17.80;99.90
33067;DHT22;19428;49.024;8.366;2023-07-29T03:47:27;17.80;99.90
33067;DHT22;19428;49.024;8.366;2023-07-29T03:49:53;17.90;99.90
33067;DHT22;19428;49.024;8.366;2023-07-29T03:52:18;17.90;99.90
33067;DHT22;19428;49.024;8.366;2023-07-29T03:54:44;17.90;99.90
33067;DHT22;19428;49.024;8.366;2023-07-29T03:57:09;18.10;99.90
33067;DHT22;19428;49.024;8.366;2023-07-29T03:59:35;18.30;99.90
33067;DHT22;19428;49.024;8.366;2023-07-29T04:02:01;18.30;99.90
33067;DHT22;19428;49.024;8.366;2023-07-29T04:04:26;18.30;99.90
33067;DHT22;19428;49.024;8.366;2023-07-29T04:06:55;18.20;99.90
33067;DHT22;19428;49.024;8.366;2023-07-29T04:09:25;18.30;99.90
33067;DHT22;19428;49.024;8.366;2023-07-29T04:14:23;18.20;99.90
33067;DHT22;19428;49.024;8.366;2023-07-29T04:16:49;18.30;99.90
33067;DHT22;19428;49.024;8.366;2023-07-29T04:19:14;18.30;99.90
33067;DHT22;19428;49.024;8.366;2023-07-29T04:21:40;18.40;99.90
33067;DHT22;19428;49.024;8.366;2023-07-29T04:24:09;18.50;99.90
33067;DHT22;19428;49.024;8.366;2023-07-29T04:26:34;18.50;99.90
33067;DHT22;19428;49.024;8.366;2023-07-29T04:29:01;18.50;99.90
33067;DHT22;19428;49.024;8.366;2023-07-29T04:31:26;18.50;99.90
33067;DHT22;19428;49.024;8.366;2023-07-29T04:33:52;18.60;99.90
33067;DHT22;19428;49.024;8.366;2023-07-29T04:36:18;18.60;99.90
33067;DHT22;19428;49.024;8.366;2023-07-29T04:38:44;18.60;99.90
33067;DHT22;19428;49.024;8.366;2023-07-29T04:41:10;18.60;99.90
33067;DHT22;19428;49.024;8.366;2023-07-29T04:43:36;18.60;99.90
33067;DHT22;19428;49.024;8.366;2023-07-29T04:46:09;18.60;99.90
33067;DHT22;19428;49.024;8.366;2023-07-29T04:48:35;18.70;99.90
33067;DHT22;19428;49.024;8.366;2023-07-29T04:51:00;18.70;99.90
33067;DHT22;19428;49.024;8.366;2023-07-29T04:53:26;18.70;99.90
33067;DHT22;19428;49.024;8.366;2023-07-29T04:55:51;18.60;99.90
33067;DHT22;19428;49.024;8.366;2023-07-29T04:58:17;18.70;99.90
33067;DHT22;19428;49.024;8.366;2023-07-29T05:00:43;18.70;99.90
33067;DHT22;19428;49.024;8.366;2023-07-29T05:03:09;18.70;99.90
33067;DHT22;19428;49.024;8.366;2023-07-29T05:05:34;18.70;99.90
33067;DHT22;19428;49.024;8.366;2023-07-29T05:08:00;18.70;99.90
33067;DHT22;19428;49.024;8.366;2023-07-29T05:10:25;18.70;99.90
33067;DHT22;19428;49.024;8.366;2023-07-29T05:12:51;18.60;99.90
33067;DHT22;19428;49.024;8.366;2023-07-29T05:15:16;18.60;99.90
33067;DHT22;19428;49.024;8.366;2023-07-29T05:17:44;18.70;99.90
33067;DHT22;19428;49.024;8.366;2023-07-29T05:20:09;18.80;99.90
33067;DHT22;19428;49.024;8.366;2023-07-29T05:22:35;18.80;99.90
33067;DHT22;19428;49.024;8.366;2023-07-29T05:25:00;18.90;99.90
33067;DHT22;19428;49.024;8.366;2023-07-29T05:27:27;18.90;99.90
33067;DHT22;19428;49.024;8.366;2023-07-29T05:29:53;18.90;99.90
33067;DHT22;19428;49.024;8.366;2023-07-29T05:32:18;18.90;99.90
33067;DHT22;19428;49.024;8.366;2023-07-29T05:34:45;19.10;99.90
33067;DHT22;19428;49.024;8.366;2023-07-29T05:37:11;19.10;99.90
33067;DHT22;19428;49.024;8.366;2023-07-29T05:39:38;19.10;99.90
33067;DHT22;19428;49.024;8.366;2023-07-29T05:42:03;19.00;99.90
33067;DHT22;19428;49.024;8.366;2023-07-29T05:44:29;19.10;99.90
33067;DHT22;19428;49.024;8.366;2023-07-29T05:46:56;19.10;99.90
33067;DHT22;19428;49.024;8.366;2023-07-29T05:49:23;19.10;99.90
33067;DHT22;19428;49.024;8.366;2023-07-29T05:51:48;19.10;99.90
33067;DHT22;19428;49.024;8.366;2023-07-29T05:54:14;19.20;99.90
33067;DHT22;19428;49.024;8.366;2023-07-29T05:56:39;19.20;99.90
33067;DHT22;19428;49.024;8.366;2023-07-29T05:59:05;19.40;99.90
33067;DHT22;19428;49.024;8.366;2023-07-29T06:01:30;19.30;99.90
33067;DHT22;19428;49.024;8.366;2023-07-29T06:03:56;19.40;99.90
33067;DHT22;19428;49.024;8.366;2023-07-29T06:06:21;19.30;99.90
33067;DHT22;19428;49.024;8.366;2023-07-29T06:08:49;19.30;99.90
33067;DHT22;19428;49.024;8.366;2023-07-29T06:11:15;19.30;99.90
33067;DHT22;19428;49.024;8.366;2023-07-29T06:13:40;19.30;99.90
33067;DHT22;19428;49.024;8.366;2023-07-29T06:16:06;19.40;99.90
33067;DHT22;19428;49.024;8.366;2023-07-29T06:18:31;19.40;99.90
33067;DHT22;19428;49.024;8.366;2023-07-29T06:20:57;19.40;99.90
33067;DHT22;19428;49.024;8.366;2023-07-29T06:23:22;19.40;99.90
33067;DHT22;19428;49.024;8.366;2023-07-29T06:25:48;19.40;99.90
33067;DHT22;19428;49.024;8.366;2023-07-29T06:28:13;19.40;99.90
33067;DHT22;19428;49.024;8.366;2023-07-29T06:30:39;19.50;99.90
33067;DHT22;19428;49.024;8.366;2023-07-29T06:33:05;19.50;99.90
33067;DHT22;19428;49.024;8.366;2023-07-29T06:35:30;19.60;99.90
33067;DHT22;19428;49.024;8.366;2023-07-29T06:37:56;19.60;99.90
33067;DHT22;19428;49.024;8.366;2023-07-29T06:40:21;19.50;99.90
33067;DHT22;19428;49.024;8.366;2023-07-29T06:42:47;19.50;99.90
33067;DHT22;19428;49.024;8.366;2023-07-29T06:45:12;19.50;99.90
33067;DHT22;19428;49.024;8.366;2023-07-29T06:47:38;19.50;99.90
33067;DHT22;19428;49.024;8.366;2023-07-29T06:50:04;19.50;99.90
33067;DHT22;19428;49.024;8.366;2023-07-29T06:52:30;19.50;99.90
33067;DHT22;19428;49.024;8.366;2023-07-29T06:54:55;19.60;99.90
33067;DHT22;19428;49.024;8.366;2023-07-29T06:57:21;19.60;99.90
33067;DHT22;19428;49.024;8.366;2023-07-29T06:59:46;19.70;99.90
33067;DHT22;19428;49.024;8.366;2023-07-29T07:02:12;19.70;99.90
33067;DHT22;19428;49.024;8.366;2023-07-29T07:04:38;19.70;99.90
33067;DHT22;19428;49.024;8.366;2023-07-29T07:07:04;19.70;99.90
33067;DHT22;19428;49.024;8.366;2023-07-29T07:09:30;19.70;99.90
33067;DHT22;19428;49.024;8.366;2023-07-29T07:11:55;19.60;99.90
33067;DHT22;19428;49.024;8.366;2023-07-29T07:14:21;19.60;99.90
33067;DHT22;19428;49.024;8.366;2023-07-29T07:16:46;19.60;99.90
33067;DHT22;19428;49.024;8.366;2023-07-29T07:19:12;19.70;99.90
33067;DHT22;19428;49.024;8.366;2023-07-29T07:21:37;19.80;99.90
33067;DHT22;19428;49.024;8.366;2023-07-29T07:24:03;19.80;99.90
33067;DHT22;19428;49.024;8.366;2023-07-29T07:26:28;19.90;99.90
33067;DHT22;19428;49.024;8.366;2023-07-29T07:28:54;19.90;99.90
33067;DHT22;19428;49.024;8.366;2023-07-29T07:31:20;19.90;99.90
33067;DHT22;19428;49.024;8.366;2023-07-29T07:33:45;19.90;99.90
33067;DHT22;19428;49.024;8.366;2023-07-29T07:36:11;19.90;99.90
33067;DHT22;19428;49.024;8.366;2023-07-29T07:38:36;20.00;99.90
33067;DHT22;19428;49.024;8.366;2023-07-29T07:41:02;20.20;99.90
33067;DHT22;19428;49.024;8.366;2023-07-29T07:43:28;20.30;99.90
33067;DHT22;19428;49.024;8.366;2023-07-29T07:46:01;20.40;99.90
33067;DHT22;19428;49.024;8.366;2023-07-29T07:48:27;20.50;99.90
33067;DHT22;19428;49.024;8.366;2023-07-29T07:50:53;20.60;99.90
33067;DHT22;19428;49.024;8.366;2023-07-29T07:53:19;20.60;99.90
33067;DHT22;19428;49.024;8.366;2023-07-29T07:55:45;20.70;99.90
33067;DHT22;19428;49.024;8.366;2023-07-29T07:58:11;20.70;99.90
33067;DHT22;19428;49.024;8.366;2023-07-29T08:00:36;20.80;99.90
33067;DHT22;19428;49.024;8.366;2023-07-29T08:03:02;20.70;99.90
33067;DHT22;19428;49.024;8.366;2023-07-29T08:05:27;20.70;99.90
33067;DHT22;19428;49.024;8.366;2023-07-29T08:07:53;20.80;99.90
33067;DHT22;19428;49.024;8.366;2023-07-29T08:10:18;20.80;99.90
33067;DHT22;19428;49.024;8.366;2023-07-29T08:12:44;21.00;99.90
33067;DHT22;19428;49.024;8.366;2023-07-29T08:15:09;21.20;99.90
33067;DHT22;19428;49.024;8.366;2023-07-29T08:17:35;21.10;99.90
33067;DHT22;19428;49.024;8.366;2023-07-29T08:20:00;21.10;99.90
33067;DHT22;19428;49.024;8.366;2023-07-29T08:22:26;21.00;99.90
33067;DHT22;19428;49.024;8.366;2023-07-29T08:24:52;21.00;99.90
33067;DHT22;19428;49.024;8.366;2023-07-29T08:27:17;21.10;99.90
33067;DHT22;19428;49.024;8.366;2023-07-29T08:29:43;21.10;99.90
33067;DHT22;19428;49.024;8.366;2023-07-29T08:32:09;21.10;99.90
33067;DHT22;19428;49.024;8.366;2023-07-29T08:34:34;21.10;99.90
33067;DHT22;19428;49.024;8.366;2023-07-29T08:37:00;21.10;99.90
33067;DHT22;19428;49.024;8.366;2023-07-29T08:39:25;21.10;99.90
33067;DHT22;19428;49.024;8.366;2023-07-29T08:42:03;21.20;99.90
33067;DHT22;19428;49.024;8.366;2023-07-29T08:44:35;21.40;99.90
33067;DHT22;19428;49.024;8.366;2023-07-29T08:47:02;21.50;99.90
33067;DHT22;19428;49.024;8.366;2023-07-29T08:49:28;21.50;99.90
33067;DHT22;19428;49.024;8.366;2023-07-29T08:51:57;21.50;99.90
33067;DHT22;19428;49.024;8.366;2023-07-29T08:54:23;21.60;99.90
33067;DHT22;19428;49.024;8.366;2023-07-29T08:56:49;21.20;99.90
33067;DHT22;19428;49.024;8.366;2023-07-29T08:59:16;21.10;99.90
33067;DHT22;19428;49.024;8.366;2023-07-29T09:01:42;21.10;99.90
33067;DHT22;19428;49.024;8.366;2023-07-29T09:04:08;21.00;99.90
33067;DHT22;19428;49.024;8.366;2023-07-29T09:06:35;21.10;99.90
33067;DHT22;19428;49.024;8.366;2023-07-29T09:09:01;21.30;99.90
33067;DHT22;19428;49.024;8.366;2023-07-29T09:11:28;21.30;99.90
33067;DHT22;19428;49.024;8.366;2023-07-29T09:13:53;21.40;99.90
33067;DHT22;19428;49.024;8.366;2023-07-29T09:16:20;21.30;99.90
33067;DHT22;19428;49.024;8.366;2023-07-29T09:18:50;21.30;99.90
33067;DHT22;19428;49.024;8.366;2023-07-29T09:21:17;21.30;99.90
33067;DHT22;19428;49.024;8.366;2023-07-29T09:23:43;21.30;99.90
33067;DHT22;19428;49.024;8.366;2023-07-29T09:26:09;21.60;99.90
33067;DHT22;19428;49.024;8.366;2023-07-29T09:28:37;21.60;99.90
33067;DHT22;19428;49.024;8.366;2023-07-29T09:31:03;21.50;99.90
33067;DHT22;19428;49.024;8.366;2023-07-29T09:33:30;21.60;99.90
33067;DHT22;19428;49.024;8.366;2023-07-29T09:36:00;21.60;99.90
33067;DHT22;19428;49.024;8.366;2023-07-29T09:38:27;21.90;99.90
33067;DHT22;19428;49.024;8.366;2023-07-29T09:40:57;22.00;99.90
33067;DHT22;19428;49.024;8.366;2023-07-29T09:43:31;22.40;99.90
33067;DHT22;19428;49.024;8.366;2023-07-29T09:46:00;22.30;99.90
33067;DHT22;19428;49.024;8.366;2023-07-29T09:48:26;22.30;99.90
33067;DHT22;19428;49.024;8.366;2023-07-29T09:50:54;22.40;99.90
33067;DHT22;19428;49.024;8.366;2023-07-29T09:53:20;22.40;99.90
33067;DHT22;19428;49.024;8.366;2023-07-29T09:55:47;22.20;99.90
33067;DHT22;19428;49.024;8.366;2023-07-29T09:58:26;22.40;99.90
33067;DHT22;19428;49.024;8.366;2023-07-29T10:00:52;22.40;99.90
33067;DHT22;19428;49.024;8.366;2023-07-29T10:03:20;22.60;99.90
33067;DHT22;19428;49.024;8.366;2023-07-29T10:05:46;22.70;99.90
33067;DHT22;19428;49.024;8.366;2023-07-29T10:08:13;22.60;99.90
33067;DHT22;19428;49.024;8.366;2023-07-29T10:10:41;22.60;99.90
33067;DHT22;19428;49.024;8.366;2023-07-29T10:13:07;22.60;99.90
33067;DHT22;19428;49.024;8.366;2023-07-29T10:15:33;22.50;99.90
33067;DHT22;19428;49.024;8.366;2023-07-29T10:17:59;22.60;99.90
33067;DHT22;19428;49.024;8.366;2023-07-29T10:20:26;22.70;99.90
33067;DHT22;19428;49.024;8.366;2023-07-29T10:22:53;22.90;99.90
33067;DHT22;19428;49.024;8.366;2023-07-29T10:25:22;22.80;99.90
33067;DHT22;19428;49.024;8.366;2023-07-29T10:28:00;22.60;99.90
33067;DHT22;19428;49.024;8.366;2023-07-29T10:30:30;22.80;99.90
33067;DHT22;19428;49.024;8.366;2023-07-29T10:32:58;23.00;99.90
33067;DHT22;19428;49.024;8.366;2023-07-29T10:35:24;23.30;99.90
33067;DHT22;19428;49.024;8.366;2023-07-29T10:37:51;23.40;99.90
33067;DHT22;19428;49.024;8.366;2023-07-29T10:40:19;23.50;99.90
33067;DHT22;19428;49.024;8.366;2023-07-29T10:43:02;23.50;99.90
33067;DHT22;19428;49.024;8.366;2023-07-29T10:45:38;23.30;99.90
33067;DHT22;19428;49.024;8.366;2023-07-29T10:48:12;23.60;99.90
33067;DHT22;19428;49.024;8.366;2023-07-29T10:50:39;23.90;99.90
33067;DHT22;19428;49.024;8.366;2023-07-29T10:53:04;24.00;99.90
33067;DHT22;19428;49.024;8.366;2023-07-29T10:55:33;24.20;99.90
33067;DHT22;19428;49.024;8.366;2023-07-29T10:58:09;23.90;99.90
33067;DHT22;19428;49.024;8.366;2023-07-29T11:00:36;24.10;99.90
33067;DHT22;19428;49.024;8.366;2023-07-29T11:03:06;24.70;99.90
33067;DHT22;19428;49.024;8.366;2023-07-29T11:05:49;24.40;99.90
33067;DHT22;19428;49.024;8.366;2023-07-29T11:08:20;24.20;99.90
33067;DHT22;19428;49.024;8.366;2023-07-29T11:10:58;24.10;99.90
33067;DHT22;19428;49.024;8.366;2023-07-29T11:13:29;24.20;99.90
33067;DHT22;19428;49.024;8.366;2023-07-29T11:15:55;24.40;99.90
33067;DHT22;19428;49.024;8.366;2023-07-29T11:18:27;24.20;99.90
33067;DHT22;19428;49.024;8.366;2023-07-29T11:20:54;24.10;99.90
33067;DHT22;19428;49.024;8.366;2023-07-29T11:23:20;24.20;99.90
33067;DHT22;19428;49.024;8.366;2023-07-29T11:25:52;24.20;99.90
33067;DHT22;19428;49.024;8.366;2023-07-29T11:28:18;24.30;99.90
33067;DHT22;19428;49.024;8.366;2023-07-29T11:30:44;24.50;98.60
33067;DHT22;19428;49.024;8.366;2023-07-29T11:33:10;24.50;94.00
33067;DHT22;19428;49.024;8.366;2023-07-29T11:35:36;24.30;94.30
33067;DHT22;19428;49.024;8.366;2023-07-29T11:38:02;24.30;94.60
33067;DHT22;19428;49.024;8.366;2023-07-29T11:40:28;24.40;93.50
33067;DHT22;19428;49.024;8.366;2023-07-29T11:42:54;24.30;94.40
33067;DHT22;19428;49.024;8.366;2023-07-29T11:45:21;24.20;94.50
33067;DHT22;19428;49.024;8.366;2023-07-29T11:47:47;24.30;93.40
33067;DHT22;19428;49.024;8.366;2023-07-29T11:50:14;24.20;95.60
33067;DHT22;19428;49.024;8.366;2023-07-29T11:52:42;24.10;93.10
33067;DHT22;19428;49.024;8.366;2023-07-29T11:55:08;24.30;93.20
33067;DHT22;19428;49.024;8.366;2023-07-29T11:57:36;24.50;93.60
33067;DHT22;19428;49.024;8.366;2023-07-29T12:00:03;25.30;92.90
33067;DHT22;19428;49.024;8.366;2023-07-29T12:02:32;25.00;90.70
33067;DHT22;19428;49.024;8.366;2023-07-29T12:04:58;25.10;90.50
33067;DHT22;19428;49.024;8.366;2023-07-29T12:07:24;25.20;88.00
33067;DHT22;19428;49.024;8.366;2023-07-29T12:09:50;25.10;91.90
33067;DHT22;19428;49.024;8.366;2023-07-29T12:12:17;25.40;88.70
33067;DHT22;19428;49.024;8.366;2023-07-29T12:14:45;25.90;88.70
33067;DHT22;19428;49.024;8.366;2023-07-29T12:17:13;25.40;83.20
33067;DHT22;19428;49.024;8.366;2023-07-29T12:19:40;25.60;73.70
33067;DHT22;19428;49.024;8.366;2023-07-29T12:22:07;25.70;72.30
33067;DHT22;19428;49.024;8.366;2023-07-29T12:24:35;26.10;67.90
33067;DHT22;19428;49.024;8.366;2023-07-29T12:27:02;26.10;68.70
33067;DHT22;19428;49.024;8.366;2023-07-29T12:29:28;25.80;72.00
33067;DHT22;19428;49.024;8.366;2023-07-29T12:32:01;26.00;62.90
33067;DHT22;19428;49.024;8.366;2023-07-29T12:34:28;26.00;61.50
33067;DHT22;19428;49.024;8.366;2023-07-29T12:36:58;26.50;61.70
33067;DHT22;19428;49.024;8.366;2023-07-29T12:39:28;26.10;62.40
33067;DHT22;19428;49.024;8.366;2023-07-29T12:41:58;26.70;61.30
33067;DHT22;19428;49.024;8.366;2023-07-29T12:44:27;27.00;53.40
33067;DHT22;19428;49.024;8.366;2023-07-29T12:46:52;26.50;48.30
33067;DHT22;19428;49.024;8.366;2023-07-29T12:49:18;26.60;49.10
33067;DHT22;19428;49.024;8.366;2023-07-29T12:51:44;26.00;50.80
33067;DHT22;19428;49.024;8.366;2023-07-29T12:54:09;25.70;52.60
33067;DHT22;19428;49.024;8.366;2023-07-29T12:56:35;25.70;52.40
33067;DHT22;19428;49.024;8.366;2023-07-29T12:59:01;25.90;55.20
33067;DHT22;19428;49.024;8.366;2023-07-29T13:01:28;25.70;49.60
33067;DHT22;19428;49.024;8.366;2023-07-29T13:03:54;26.40;49.50
33067;DHT22;19428;49.024;8.366;2023-07-29T13:06:20;26.80;44.40
33067;DHT22;19428;49.024;8.366;2023-07-29T13:08:47;26.20;45.00
33067;DHT22;19428;49.024;8.366;2023-07-29T13:11:14;26.20;45.60
33067;DHT22;19428;49.024;8.366;2023-07-29T13:13:40;26.50;48.90
33067;DHT22;19428;49.024;8.366;2023-07-29T13:16:06;26.30;49.00
33067;DHT22;19428;49.024;8.366;2023-07-29T13:18:32;26.30;51.20
33067;DHT22;19428;49.024;8.366;2023-07-29T13:20:58;26.20;53.00
33067;DHT22;19428;49.024;8.366;2023-07-29T13:23:26;26.70;49.60
33067;DHT22;19428;49.024;8.366;2023-07-29T13:25:52;26.50;50.60
33067;DHT22;19428;49.024;8.366;2023-07-29T13:28:18;26.80;51.50
33067;DHT22;19428;49.024;8.366;2023-07-29T13:30:44;27.10;54.60
33067;DHT22;19428;49.024;8.366;2023-07-29T13:33:10;27.10;47.30
33067;DHT22;19428;49.024;8.366;2023-07-29T13:35:35;26.40;46.90
33067;DHT22;19428;49.024;8.366;2023-07-29T13:38:01;26.60;46.60
33067;DHT22;19428;49.024;8.366;2023-07-29T13:40:31;26.80;49.00
33067;DHT22;19428;49.024;8.366;2023-07-29T13:42:57;26.50;42.20
33067;DHT22;19428;49.024;8.366;2023-07-29T13:45:23;26.40;42.00
33067;DHT22;19428;49.024;8.366;2023-07-29T13:47:49;25.80;44.50
33067;DHT22;19428;49.024;8.366;2023-07-29T13:50:16;26.40;42.00
33067;DHT22;19428;49.024;8.366;2023-07-29T13:52:41;26.60;38.50
33067;DHT22;19428;49.024;8.366;2023-07-29T13:55:07;26.50;40.80
33067;DHT22;19428;49.024;8.366;2023-07-29T13:57:33;27.00;41.30
33067;DHT22;19428;49.024;8.366;2023-07-29T13:59:59;27.10;37.30
33067;DHT22;19428;49.024;8.366;2023-07-29T14:02:24;27.00;35.90
33067;DHT22;19428;49.024;8.366;2023-07-29T14:04:53;27.50;36.90
33067;DHT22;19428;49.024;8.366;2023-07-29T14:07:19;27.00;35.10
33067;DHT22;19428;49.024;8.366;2023-07-29T14:09:45;27.10;36.30
33067;DHT22;19428;49.024;8.366;2023-07-29T14:12:10;27.30;38.90
33067;DHT22;19428;49.024;8.366;2023-07-29T14:14:41;27.10;33.80
33067;DHT22;19428;49.024;8.366;2023-07-29T14:17:07;26.80;36.30
33067;DHT22;19428;49.024;8.366;2023-07-29T14:19:39;26.50;34.80
33067;DHT22;19428;49.024;8.366;2023-07-29T14:22:05;27.20;36.90
33067;DHT22;19428;49.024;8.366;2023-07-29T14:24:30;27.10;33.80
33067;DHT22;19428;49.024;8.366;2023-07-29T14:26:56;26.40;35.90
33067;DHT22;19428;49.024;8.366;2023-07-29T14:29:21;27.10;36.30
33067;DHT22;19428;49.024;8.366;2023-07-29T14:31:47;26.60;35.10
33067;DHT22;19428;49.024;8.366;2023-07-29T14:34:13;26.30;38.60
33067;DHT22;19428;49.024;8.366;2023-07-29T14:36:38;26.00;41.70
33067;DHT22;19428;49.024;8.366;2023-07-29T14:39:07;26.70;38.70
33067;DHT22;19428;49.024;8.366;2023-07-29T14:41:35;27.00;34.10
33067;DHT22;19428;49.024;8.366;2023-07-29T14:44:00;27.10;35.50
33067;DHT22;19428;49.024;8.366;2023-07-29T14:46:26;26.60;33.70
33067;DHT22;19428;49.024;8.366;2023-07-29T14:48:52;27.00;34.40
33067;DHT22;19428;49.024;8.366;2023-07-29T14:51:17;27.40;33.10
33067;DHT22;19428;49.024;8.366;2023-07-29T14:53:43;27.30;32.40
33067;DHT22;19428;49.024;8.366;2023-07-29T14:56:08;27.00;32.30
33067;DHT22;19428;49.024;8.366;2023-07-29T14:58:34;26.90;35.90
33067;DHT22;19428;49.024;8.366;2023-07-29T15:00:59;26.50;34.60
33067;DHT22;19428;49.024;8.366;2023-07-29T15:03:25;26.20;34.90
33067;DHT22;19428;49.024;8.366;2023-07-29T15:05:51;26.40;35.00
33067;DHT22;19428;49.024;8.366;2023-07-29T15:08:17;26.80;33.80
33067;DHT22;19428;49.024;8.366;2023-07-29T15:10:49;26.40;35.00
33067;DHT22;19428;49.024;8.366;2023-07-29T15:13:15;26.40;35.00
33067;DHT22;19428;49.024;8.366;2023-07-29T15:15:42;26.60;31.20
33067;DHT22;19428;49.024;8.366;2023-07-29T15:18:08;26.60;32.50
33067;DHT22;19428;49.024;8.366;2023-07-29T15:20:34;26.80;30.00
33067;DHT22;19428;49.024;8.366;2023-07-29T15:22:59;26.90;32.60
33067;DHT22;19428;49.024;8.366;2023-07-29T15:25:25;26.70;31.10
33067;DHT22;19428;49.024;8.366;2023-07-29T15:27:50;27.10;31.60
33067;DHT22;19428;49.024;8.366;2023-07-29T15:30:16;26.80;30.20
33067;DHT22;19428;49.024;8.366;2023-07-29T15:32:42;27.10;28.50